sensor_id;sensor_type;location;lat;lon;timestamp;P1;durP1;ratioP1;P2;durP2;ratioP2
44842;SDS011;31884;52.538;13.820;2023-05-08T00:02:24;6.57;;;5.03;;
44842;SDS011;31884;52.538;13.820;2023-05-08T00:04:49;6.65;;;4.70;;
44842;SDS011;31884;52.538;13.820;2023-05-08T00:07:15;6.70;;;4.57;;
44842;SDS011;31884;52.538;13.820;2023-05-08T00:09:40;5.70;;;4.65;;
44842;SDS011;31884;52.538;13.820;2023-05-08T00:12:06;7.57;;;4.85;;
44842;SDS011;31884;52.538;13.820;2023-05-08T00:14:31;7.32;;;4.97;;
44842;SDS011;31884;52.538;13.820;2023-05-08T00:16:57;8.00;;;5.45;;
44842;SDS011;31884;52.538;13.820;2023-05-08T00:19:22;6.97;;;4.80;;
44842;SDS011;31884;52.538;13.820;2023-05-08T00:21:48;7.05;;;4.65;;
44842;SDS011;31884;52.538;13.820;2023-05-08T00:24:13;5.78;;;4.18;;
44842;SDS011;31884;52.538;13.820;2023-05-08T00:26:39;5.75;;;4.97;;
44842;SDS011;31884;52.538;13.820;2023-05-08T00:29:05;6.80;;;5.28;;
44842;SDS011;31884;52.538;13.820;2023-05-08T00:31:31;7.57;;;4.72;;
44842;SDS011;31884;52.538;13.820;2023-05-08T00:33:56;7.32;;;5.13;;
44842;SDS011;31884;52.538;13.820;2023-05-08T00:36:22;8.75;;;5.78;;
44842;SDS011;31884;52.538;13.820;2023-05-08T00:38:47;7.03;;;4.78;;
44842;SDS011;31884;52.538;13.820;2023-05-08T00:41:13;7.70;;;4.90;;
44842;SDS011;31884;52.538;13.820;2023-05-08T00:43:39;7.68;;;5.95;;
44842;SDS011;31884;52.538;13.820;2023-05-08T00:46:06;4.40;;;3.78;;
44842;SDS011;31884;52.538;13.820;2023-05-08T00:48:33;10.80;;;5.47;;
44842;SDS011;31884;52.538;13.820;2023-05-08T00:50:59;7.05;;;5.13;;
44842;SDS011;31884;52.538;13.820;2023-05-08T00:53:29;7.65;;;5.35;;
44842;SDS011;31884;52.538;13.820;2023-05-08T00:55:56;6.38;;;4.68;;
44842;SDS011;31884;52.538;13.820;2023-05-08T00:58:22;6.35;;;4.45;;
44842;SDS011;31884;52.538;13.820;2023-05-08T01:00:51;7.43;;;4.68;;
44842;SDS011;31884;52.538;13.820;2023-05-08T01:03:19;6.00;;;4.40;;
44842;SDS011;31884;52.538;13.820;2023-05-08T01:05:46;7.95;;;4.45;;
44842;SDS011;31884;52.538;13.820;2023-05-08T01:08:12;7.78;;;4.85;;
44842;SDS011;31884;52.538;13.820;2023-05-08T01:16:38;6.45;;;4.57;;
44842;SDS011;31884;52.538;13.820;2023-05-08T01:21:52;7.50;;;5.18;;
44842;SDS011;31884;52.538;13.820;2023-05-08T01:30:06;8.48;;;6.05;;
44842;SDS011;31884;52.538;13.820;2023-05-08T01:32:45;6.07;;;4.47;;
44842;SDS011;31884;52.538;13.820;2023-05-08T01:35:29;5.88;;;4.32;;
44842;SDS011;31884;52.538;13.820;2023-05-08T01:46:12;6.07;;;4.50;;
44842;SDS011;31884;52.538;13.820;2023-05-08T01:48:43;7.45;;;4.80;;
44842;SDS011;31884;52.538;13.820;2023-05-08T01:51:16;7.28;;;4.32;;
44842;SDS011;31884;52.538;13.820;2023-05-08T01:53:46;6.05;;;4.25;;
44842;SDS011;31884;52.538;13.820;2023-05-08T01:56:15;6.47;;;4.72;;
44842;SDS011;31884;52.538;13.820;2023-05-08T01:58:46;8.60;;;4.45;;
44842;SDS011;31884;52.538;13.820;2023-05-08T02:01:13;6.00;;;4.80;;
44842;SDS011;31884;52.538;13.820;2023-05-08T02:03:42;6.68;;;4.78;;
44842;SDS011;31884;52.538;13.820;2023-05-08T02:06:11;7.82;;;4.68;;
44842;SDS011;31884;52.538;13.820;2023-05-08T02:08:40;8.93;;;4.88;;
44842;SDS011;31884;52.538;13.820;2023-05-08T02:11:08;7.70;;;5.03;;
44842;SDS011;31884;52.538;13.820;2023-05-08T02:13:36;6.30;;;4.50;;
44842;SDS011;31884;52.538;13.820;2023-05-08T02:16:03;8.90;;;4.78;;
44842;SDS011;31884;52.538;13.820;2023-05-08T02:18:32;6.72;;;4.65;;
44842;SDS011;31884;52.538;13.820;2023-05-08T02:20:59;5.88;;;4.20;;
44842;SDS011;31884;52.538;13.820;2023-05-08T02:23:27;7.40;;;5.63;;
44842;SDS011;31884;52.538;13.820;2023-05-08T02:25:54;7.13;;;5.10;;
44842;SDS011;31884;52.538;13.820;2023-05-08T02:28:21;7.07;;;4.78;;
44842;SDS011;31884;52.538;13.820;2023-05-08T02:30:48;7.88;;;5.07;;
44842;SDS011;31884;52.538;13.820;2023-05-08T02:33:15;8.63;;;5.63;;
44842;SDS011;31884;52.538;13.820;2023-05-08T02:35:43;8.25;;;5.30;;
44842;SDS011;31884;52.538;13.820;2023-05-08T02:38:12;6.45;;;4.60;;
44842;SDS011;31884;52.538;13.820;2023-05-08T02:40:40;7.97;;;5.78;;
44842;SDS011;31884;52.538;13.820;2023-05-08T02:43:10;8.43;;;5.45;;
44842;SDS011;31884;52.538;13.820;2023-05-08T02:45:38;11.77;;;5.30;;
44842;SDS011;31884;52.538;13.820;2023-05-08T02:48:19;10.20;;;6.07;;
44842;SDS011;31884;52.538;13.820;2023-05-08T02:50:57;7.13;;;5.00;;
44842;SDS011;31884;52.538;13.820;2023-05-08T02:53:39;10.10;;;5.82;;
44842;SDS011;31884;52.538;13.820;2023-05-08T02:56:20;7.47;;;5.38;;
44842;SDS011;31884;52.538;13.820;2023-05-08T02:59:21;8.63;;;5.65;;
44842;SDS011;31884;52.538;13.820;2023-05-08T03:02:15;8.80;;;5.97;;
44842;SDS011;31884;52.538;13.820;2023-05-08T03:04:50;6.07;;;4.75;;
44842;SDS011;31884;52.538;13.820;2023-05-08T03:07:19;8.02;;;5.78;;
44842;SDS011;31884;52.538;13.820;2023-05-08T03:09:47;9.52;;;6.05;;
44842;SDS011;31884;52.538;13.820;2023-05-08T03:12:19;8.68;;;5.50;;
44842;SDS011;31884;52.538;13.820;2023-05-08T03:14:51;8.15;;;6.03;;
44842;SDS011;31884;52.538;13.820;2023-05-08T03:17:27;7.60;;;5.90;;
44842;SDS011;31884;52.538;13.820;2023-05-08T03:19:57;13.98;;;6.97;;
44842;SDS011;31884;52.538;13.820;2023-05-08T03:22:25;9.35;;;6.97;;
44842;SDS011;31884;52.538;13.820;2023-05-08T03:24:52;10.48;;;7.15;;
44842;SDS011;31884;52.538;13.820;2023-05-08T03:27:21;10.55;;;6.82;;
44842;SDS011;31884;52.538;13.820;2023-05-08T03:29:47;10.55;;;7.80;;
44842;SDS011;31884;52.538;13.820;2023-05-08T03:32:14;9.82;;;6.72;;
44842;SDS011;31884;52.538;13.820;2023-05-08T03:34:41;10.50;;;7.00;;
44842;SDS011;31884;52.538;13.820;2023-05-08T03:37:07;9.23;;;6.70;;
44842;SDS011;31884;52.538;13.820;2023-05-08T03:39:33;10.13;;;6.88;;
44842;SDS011;31884;52.538;13.820;2023-05-08T03:41:58;13.20;;;7.93;;
44842;SDS011;31884;52.538;13.820;2023-05-08T03:44:24;11.73;;;7.93;;
44842;SDS011;31884;52.538;13.820;2023-05-08T03:46:52;13.40;;;8.20;;
44842;SDS011;31884;52.538;13.820;2023-05-08T03:49:22;8.82;;;7.18;;
44842;SDS011;31884;52.538;13.820;2023-05-08T03:51:53;13.52;;;7.55;;
44842;SDS011;31884;52.538;13.820;2023-05-08T03:54:19;9.93;;;7.00;;
44842;SDS011;31884;52.538;13.820;2023-05-08T03:56:49;11.23;;;7.80;;
44842;SDS011;31884;52.538;13.820;2023-05-08T03:59:17;14.48;;;8.60;;
44842;SDS011;31884;52.538;13.820;2023-05-08T04:04:59;10.43;;;7.50;;
44842;SDS011;31884;52.538;13.820;2023-05-08T04:07:36;11.45;;;7.85;;
44842;SDS011;31884;52.538;13.820;2023-05-08T04:10:15;10.30;;;6.53;;
44842;SDS011;31884;52.538;13.820;2023-05-08T04:15:33;9.63;;;5.97;;
44842;SDS011;31884;52.538;13.820;2023-05-08T04:18:03;8.65;;;6.28;;
44842;SDS011;31884;52.538;13.820;2023-05-08T04:20:32;8.70;;;5.30;;
44842;SDS011;31884;52.538;13.820;2023-05-08T04:22:58;7.78;;;5.43;;
44842;SDS011;31884;52.538;13.820;2023-05-08T04:25:25;7.15;;;5.18;;
44842;SDS011;31884;52.538;13.820;2023-05-08T04:27:51;7.40;;;5.10;;
44842;SDS011;31884;52.538;13.820;2023-05-08T04:30:17;7.10;;;5.03;;
44842;SDS011;31884;52.538;13.820;2023-05-08T04:32:43;8.00;;;4.28;;
44842;SDS011;31884;52.538;13.820;2023-05-08T04:35:10;5.93;;;4.32;;
44842;SDS011;31884;52.538;13.820;2023-05-08T04:37:37;6.43;;;4.40;;
44842;SDS011;31884;52.538;13.820;2023-05-08T04:40:03;7.38;;;4.43;;
44842;SDS011;31884;52.538;13.820;2023-05-08T04:42:29;5.32;;;4.15;;
44842;SDS011;31884;52.538;13.820;2023-05-08T04:44:54;5.35;;;4.57;;
44842;SDS011;31884;52.538;13.820;2023-05-08T04:47:20;6.60;;;4.32;;
44842;SDS011;31884;52.538;13.820;2023-05-08T04:49:46;6.97;;;3.97;;
44842;SDS011;31884;52.538;13.820;2023-05-08T04:52:11;6.78;;;3.97;;
44842;SDS011;31884;52.538;13.820;2023-05-08T04:54:37;6.93;;;4.43;;
44842;SDS011;31884;52.538;13.820;2023-05-08T04:57:03;6.18;;;4.30;;
44842;SDS011;31884;52.538;13.820;2023-05-08T04:59:29;6.53;;;4.65;;
44842;SDS011;31884;52.538;13.820;2023-05-08T05:01:55;5.57;;;3.90;;
44842;SDS011;31884;52.538;13.820;2023-05-08T05:04:21;4.80;;;3.70;;
44842;SDS011;31884;52.538;13.820;2023-05-08T05:06:46;6.03;;;3.75;;
44842;SDS011;31884;52.538;13.820;2023-05-08T05:09:12;4.72;;;3.80;;
44842;SDS011;31884;52.538;13.820;2023-05-08T05:11:37;4.70;;;3.33;;
44842;SDS011;31884;52.538;13.820;2023-05-08T05:14:03;4.80;;;4.15;;
44842;SDS011;31884;52.538;13.820;2023-05-08T05:16:28;6.15;;;4.20;;
44842;SDS011;31884;52.538;13.820;2023-05-08T05:18:54;6.47;;;4.03;;
44842;SDS011;31884;52.538;13.820;2023-05-08T05:21:19;5.28;;;3.85;;
44842;SDS011;31884;52.538;13.820;2023-05-08T05:23:45;6.50;;;4.55;;
44842;SDS011;31884;52.538;13.820;2023-05-08T05:26:10;5.25;;;3.65;;
44842;SDS011;31884;52.538;13.820;2023-05-08T05:28:36;4.70;;;4.05;;
44842;SDS011;31884;52.538;13.820;2023-05-08T05:31:01;5.85;;;4.38;;
44842;SDS011;31884;52.538;13.820;2023-05-08T05:33:27;6.00;;;3.80;;
44842;SDS011;31884;52.538;13.820;2023-05-08T05:35:53;4.78;;;3.83;;
44842;SDS011;31884;52.538;13.820;2023-05-08T05:38:18;8.60;;;3.55;;
44842;SDS011;31884;52.538;13.820;2023-05-08T05:40:44;4.82;;;3.38;;
44842;SDS011;31884;52.538;13.820;2023-05-08T05:43:09;4.82;;;3.55;;
44842;SDS011;31884;52.538;13.820;2023-05-08T05:45:35;4.65;;;3.65;;
44842;SDS011;31884;52.538;13.820;2023-05-08T05:48:01;4.90;;;3.78;;
44842;SDS011;31884;52.538;13.820;2023-05-08T05:50:26;6.15;;;4.10;;
44842;SDS011;31884;52.538;13.820;2023-05-08T05:52:52;4.50;;;3.92;;
44842;SDS011;31884;52.538;13.820;2023-05-08T05:55:18;4.60;;;3.83;;
44842;SDS011;31884;52.538;13.820;2023-05-08T05:57:44;5.20;;;3.53;;
44842;SDS011;31884;52.538;13.820;2023-05-08T06:00:10;4.13;;;3.33;;
44842;SDS011;31884;52.538;13.820;2023-05-08T06:02:36;4.95;;;3.65;;
44842;SDS011;31884;52.538;13.820;2023-05-08T06:05:02;6.18;;;3.92;;
44842;SDS011;31884;52.538;13.820;2023-05-08T06:07:28;3.90;;;3.33;;
44842;SDS011;31884;52.538;13.820;2023-05-08T06:09:54;4.25;;;3.85;;
44842;SDS011;31884;52.538;13.820;2023-05-08T06:12:20;5.10;;;4.20;;
44842;SDS011;31884;52.538;13.820;2023-05-08T06:14:46;3.90;;;2.97;;
44842;SDS011;31884;52.538;13.820;2023-05-08T06:17:12;5.85;;;3.35;;
44842;SDS011;31884;52.538;13.820;2023-05-08T06:19:37;4.25;;;2.97;;
44842;SDS011;31884;52.538;13.820;2023-05-08T06:22:03;5.18;;;3.67;;
44842;SDS011;31884;52.538;13.820;2023-05-08T06:24:28;4.22;;;3.53;;
44842;SDS011;31884;52.538;13.820;2023-05-08T06:26:54;4.63;;;3.10;;
44842;SDS011;31884;52.538;13.820;2023-05-08T06:29:19;7.07;;;3.60;;
44842;SDS011;31884;52.538;13.820;2023-05-08T06:31:46;3.92;;;3.20;;
44842;SDS011;31884;52.538;13.820;2023-05-08T06:34:11;4.72;;;3.15;;
44842;SDS011;31884;52.538;13.820;2023-05-08T06:36:37;3.85;;;2.90;;
44842;SDS011;31884;52.538;13.820;2023-05-08T06:39:05;4.10;;;2.97;;
44842;SDS011;31884;52.538;13.820;2023-05-08T06:41:31;5.13;;;3.30;;
44842;SDS011;31884;52.538;13.820;2023-05-08T06:43:57;4.15;;;3.08;;
44842;SDS011;31884;52.538;13.820;2023-05-08T06:46:22;3.97;;;2.83;;
44842;SDS011;31884;52.538;13.820;2023-05-08T06:48:48;4.70;;;2.97;;
44842;SDS011;31884;52.538;13.820;2023-05-08T06:51:13;3.55;;;3.22;;
44842;SDS011;31884;52.538;13.820;2023-05-08T06:53:39;4.63;;;3.28;;
44842;SDS011;31884;52.538;13.820;2023-05-08T06:56:04;4.07;;;3.28;;
44842;SDS011;31884;52.538;13.820;2023-05-08T06:58:30;3.63;;;2.90;;
44842;SDS011;31884;52.538;13.820;2023-05-08T07:00:57;3.78;;;2.58;;
44842;SDS011;31884;52.538;13.820;2023-05-08T07:03:23;3.28;;;2.67;;
44842;SDS011;31884;52.538;13.820;2023-05-08T07:05:50;4.47;;;2.80;;
44842;SDS011;31884;52.538;13.820;2023-05-08T07:08:15;2.90;;;2.47;;
44842;SDS011;31884;52.538;13.820;2023-05-08T07:10:41;4.75;;;3.08;;
44842;SDS011;31884;52.538;13.820;2023-05-08T07:13:06;3.90;;;3.13;;
44842;SDS011;31884;52.538;13.820;2023-05-08T07:15:31;4.25;;;2.88;;
44842;SDS011;31884;52.538;13.820;2023-05-08T07:17:57;3.08;;;2.40;;
44842;SDS011;31884;52.538;13.820;2023-05-08T07:20:22;3.50;;;2.40;;
44842;SDS011;31884;52.538;13.820;2023-05-08T07:22:48;2.95;;;2.65;;
44842;SDS011;31884;52.538;13.820;2023-05-08T07:25:14;4.43;;;2.20;;
44842;SDS011;31884;52.538;13.820;2023-05-08T07:27:40;4.50;;;2.13;;
44842;SDS011;31884;52.538;13.820;2023-05-08T07:30:06;4.65;;;2.70;;
44842;SDS011;31884;52.538;13.820;2023-05-08T07:32:32;4.60;;;2.63;;
44842;SDS011;31884;52.538;13.820;2023-05-08T07:34:58;2.75;;;2.30;;
44842;SDS011;31884;52.538;13.820;2023-05-08T07:37:24;4.05;;;2.10;;
44842;SDS011;31884;52.538;13.820;2023-05-08T07:39:49;4.43;;;2.40;;
44842;SDS011;31884;52.538;13.820;2023-05-08T07:42:15;2.33;;;2.13;;
44842;SDS011;31884;52.538;13.820;2023-05-08T07:44:42;4.00;;;2.17;;
44842;SDS011;31884;52.538;13.820;2023-05-08T07:47:07;2.72;;;2.33;;
44842;SDS011;31884;52.538;13.820;2023-05-08T07:49:33;2.80;;;2.30;;
44842;SDS011;31884;52.538;13.820;2023-05-08T07:51:58;4.18;;;2.97;;
44842;SDS011;31884;52.538;13.820;2023-05-08T07:54:24;3.70;;;2.35;;
44842;SDS011;31884;52.538;13.820;2023-05-08T07:56:50;4.53;;;2.60;;
44842;SDS011;31884;52.538;13.820;2023-05-08T07:59:15;3.15;;;2.45;;
44842;SDS011;31884;52.538;13.820;2023-05-08T08:01:41;6.72;;;2.55;;
44842;SDS011;31884;52.538;13.820;2023-05-08T08:04:11;2.97;;;2.33;;
44842;SDS011;31884;52.538;13.820;2023-05-08T08:06:39;4.72;;;2.88;;
44842;SDS011;31884;52.538;13.820;2023-05-08T08:09:05;4.93;;;2.20;;
44842;SDS011;31884;52.538;13.820;2023-05-08T08:11:30;3.22;;;2.08;;
44842;SDS011;31884;52.538;13.820;2023-05-08T08:13:56;4.07;;;2.30;;
44842;SDS011;31884;52.538;13.820;2023-05-08T08:16:21;4.82;;;2.80;;
44842;SDS011;31884;52.538;13.820;2023-05-08T08:18:47;4.75;;;2.33;;
44842;SDS011;31884;52.538;13.820;2023-05-08T08:21:13;2.63;;;2.08;;
44842;SDS011;31884;52.538;13.820;2023-05-08T08:23:38;3.63;;;1.65;;
44842;SDS011;31884;52.538;13.820;2023-05-08T08:26:03;3.58;;;1.90;;
44842;SDS011;31884;52.538;13.820;2023-05-08T08:28:29;3.70;;;2.20;;
44842;SDS011;31884;52.538;13.820;2023-05-08T08:30:55;3.33;;;2.50;;
44842;SDS011;31884;52.538;13.820;2023-05-08T08:33:20;4.03;;;1.95;;
44842;SDS011;31884;52.538;13.820;2023-05-08T08:35:46;2.60;;;2.13;;
44842;SDS011;31884;52.538;13.820;2023-05-08T08:38:11;2.97;;;2.13;;
44842;SDS011;31884;52.538;13.820;2023-05-08T08:40:37;3.20;;;2.45;;
44842;SDS011;31884;52.538;13.820;2023-05-08T08:43:04;3.50;;;1.77;;
44842;SDS011;31884;52.538;13.820;2023-05-08T08:45:30;2.20;;;2.00;;
44842;SDS011;31884;52.538;13.820;2023-05-08T08:47:56;4.63;;;2.10;;
44842;SDS011;31884;52.538;13.820;2023-05-08T08:50:25;2.58;;;1.90;;
44842;SDS011;31884;52.538;13.820;2023-05-08T08:53:00;3.08;;;2.20;;
44842;SDS011;31884;52.538;13.820;2023-05-08T08:55:32;3.90;;;1.88;;
44842;SDS011;31884;52.538;13.820;2023-05-08T08:58:13;3.22;;;2.00;;
44842;SDS011;31884;52.538;13.820;2023-05-08T09:00:44;4.50;;;2.33;;
44842;SDS011;31884;52.538;13.820;2023-05-08T09:03:11;3.70;;;2.25;;
44842;SDS011;31884;52.538;13.820;2023-05-08T09:05:38;5.22;;;2.38;;
44842;SDS011;31884;52.538;13.820;2023-05-08T09:08:04;3.15;;;2.22;;
44842;SDS011;31884;52.538;13.820;2023-05-08T09:10:31;4.07;;;2.40;;
44842;SDS011;31884;52.538;13.820;2023-05-08T09:12:56;3.47;;;2.33;;
44842;SDS011;31884;52.538;13.820;2023-05-08T09:15:22;3.47;;;2.28;;
44842;SDS011;31884;52.538;13.820;2023-05-08T09:17:47;6.07;;;2.70;;
44842;SDS011;31884;52.538;13.820;2023-05-08T09:20:13;5.05;;;2.45;;
44842;SDS011;31884;52.538;13.820;2023-05-08T09:22:40;6.65;;;2.58;;
44842;SDS011;31884;52.538;13.820;2023-05-08T09:25:07;3.83;;;2.22;;
44842;SDS011;31884;52.538;13.820;2023-05-08T09:27:33;4.57;;;2.10;;
44842;SDS011;31884;52.538;13.820;2023-05-08T09:30:01;7.85;;;2.53;;
44842;SDS011;31884;52.538;13.820;2023-05-08T09:32:30;6.53;;;2.47;;
44842;SDS011;31884;52.538;13.820;2023-05-08T09:34:56;3.55;;;2.30;;
44842;SDS011;31884;52.538;13.820;2023-05-08T09:37:22;2.42;;;2.20;;
44842;SDS011;31884;52.538;13.820;2023-05-08T09:39:48;5.65;;;2.83;;
44842;SDS011;31884;52.538;13.820;2023-05-08T09:42:14;4.53;;;2.33;;
44842;SDS011;31884;52.538;13.820;2023-05-08T09:44:49;3.80;;;1.88;;
44842;SDS011;31884;52.538;13.820;2023-05-08T09:47:21;2.40;;;2.17;;
44842;SDS011;31884;52.538;13.820;2023-05-08T09:49:57;5.82;;;2.33;;
44842;SDS011;31884;52.538;13.820;2023-05-08T09:52:27;2.60;;;1.90;;
44842;SDS011;31884;52.538;13.820;2023-05-08T09:57:23;4.93;;;2.45;;
44842;SDS011;31884;52.538;13.820;2023-05-08T09:59:49;5.28;;;2.28;;
44842;SDS011;31884;52.538;13.820;2023-05-08T10:02:15;3.20;;;2.40;;
44842;SDS011;31884;52.538;13.820;2023-05-08T10:04:41;3.28;;;2.75;;
44842;SDS011;31884;52.538;13.820;2023-05-08T10:07:07;6.10;;;2.67;;
44842;SDS011;31884;52.538;13.820;2023-05-08T10:09:32;3.65;;;2.28;;
44842;SDS011;31884;52.538;13.820;2023-05-08T10:11:58;6.25;;;2.20;;
44842;SDS011;31884;52.538;13.820;2023-05-08T10:14:23;4.03;;;1.92;;
44842;SDS011;31884;52.538;13.820;2023-05-08T10:16:50;3.53;;;2.50;;
44842;SDS011;31884;52.538;13.820;2023-05-08T10:19:20;4.35;;;2.45;;
44842;SDS011;31884;52.538;13.820;2023-05-08T10:21:48;4.45;;;2.03;;
44842;SDS011;31884;52.538;13.820;2023-05-08T10:24:16;3.60;;;2.20;;
44842;SDS011;31884;52.538;13.820;2023-05-08T10:26:47;5.90;;;2.33;;
44842;SDS011;31884;52.538;13.820;2023-05-08T10:29:20;5.15;;;2.13;;
44842;SDS011;31884;52.538;13.820;2023-05-08T10:31:56;4.15;;;2.25;;
44842;SDS011;31884;52.538;13.820;2023-05-08T10:34:23;6.47;;;2.67;;
44842;SDS011;31884;52.538;13.820;2023-05-08T10:36:51;3.05;;;2.05;;
44842;SDS011;31884;52.538;13.820;2023-05-08T10:39:17;4.15;;;2.20;;
44842;SDS011;31884;52.538;13.820;2023-05-08T10:41:44;2.70;;;2.08;;
44842;SDS011;31884;52.538;13.820;2023-05-08T10:44:10;5.05;;;2.30;;
44842;SDS011;31884;52.538;13.820;2023-05-08T10:49:24;14.18;;;2.72;;
44842;SDS011;31884;52.538;13.820;2023-05-08T10:52:17;3.55;;;2.10;;
44842;SDS011;31884;52.538;13.820;2023-05-08T10:57:28;4.32;;;2.28;;
44842;SDS011;31884;52.538;13.820;2023-05-08T10:59:54;5.03;;;2.40;;
44842;SDS011;31884;52.538;13.820;2023-05-08T11:02:26;4.55;;;2.10;;
44842;SDS011;31884;52.538;13.820;2023-05-08T11:04:54;4.55;;;2.17;;
44842;SDS011;31884;52.538;13.820;2023-05-08T11:07:22;4.70;;;1.92;;
44842;SDS011;31884;52.538;13.820;2023-05-08T11:09:54;3.50;;;2.30;;
44842;SDS011;31884;52.538;13.820;2023-05-08T11:12:31;6.03;;;2.30;;
44842;SDS011;31884;52.538;13.820;2023-05-08T11:15:01;5.60;;;2.00;;
44842;SDS011;31884;52.538;13.820;2023-05-08T11:17:31;3.47;;;2.10;;
44842;SDS011;31884;52.538;13.820;2023-05-08T11:20:02;3.85;;;2.40;;
44842;SDS011;31884;52.538;13.820;2023-05-08T11:22:34;3.35;;;2.30;;
44842;SDS011;31884;52.538;13.820;2023-05-08T11:25:09;2.88;;;1.65;;
44842;SDS011;31884;52.538;13.820;2023-05-08T11:33:19;3.50;;;2.22;;
44842;SDS011;31884;52.538;13.820;2023-05-08T11:38:33;4.25;;;2.03;;
44842;SDS011;31884;52.538;13.820;2023-05-08T11:41:04;3.22;;;1.75;;
44842;SDS011;31884;52.538;13.820;2023-05-08T11:46:22;2.95;;;2.20;;
44842;SDS011;31884;52.538;13.820;2023-05-08T11:48:59;3.25;;;1.92;;
44842;SDS011;31884;52.538;13.820;2023-05-08T11:51:25;2.05;;;1.85;;
44842;SDS011;31884;52.538;13.820;2023-05-08T11:53:55;4.90;;;1.77;;
44842;SDS011;31884;52.538;13.820;2023-05-08T11:56:21;5.25;;;2.20;;
44842;SDS011;31884;52.538;13.820;2023-05-08T11:58:47;2.88;;;2.03;;
44842;SDS011;31884;52.538;13.820;2023-05-08T12:01:15;2.53;;;1.80;;
44842;SDS011;31884;52.538;13.820;2023-05-08T12:03:43;3.53;;;2.28;;
44842;SDS011;31884;52.538;13.820;2023-05-08T12:06:09;2.30;;;1.80;;
44842;SDS011;31884;52.538;13.820;2023-05-08T12:08:36;5.18;;;2.17;;
44842;SDS011;31884;52.538;13.820;2023-05-08T12:11:03;3.97;;;1.88;;
44842;SDS011;31884;52.538;13.820;2023-05-08T12:13:29;1.70;;;1.60;;
44842;SDS011;31884;52.538;13.820;2023-05-08T12:15:55;2.78;;;2.00;;
44842;SDS011;31884;52.538;13.820;2023-05-08T12:18:23;4.75;;;1.67;;
44842;SDS011;31884;52.538;13.820;2023-05-08T12:20:55;5.35;;;1.85;;
44842;SDS011;31884;52.538;13.820;2023-05-08T12:23:23;4.47;;;2.03;;
44842;SDS011;31884;52.538;13.820;2023-05-08T12:25:52;1.90;;;1.48;;
44842;SDS011;31884;52.538;13.820;2023-05-08T12:28:18;4.18;;;2.15;;
44842;SDS011;31884;52.538;13.820;2023-05-08T12:30:44;1.85;;;1.50;;
44842;SDS011;31884;52.538;13.820;2023-05-08T12:33:10;3.45;;;1.73;;
44842;SDS011;31884;52.538;13.820;2023-05-08T12:35:36;2.80;;;2.20;;
44842;SDS011;31884;52.538;13.820;2023-05-08T12:38:03;3.67;;;2.00;;
44842;SDS011;31884;52.538;13.820;2023-05-08T12:40:32;2.85;;;1.80;;
44842;SDS011;31884;52.538;13.820;2023-05-08T12:43:06;3.85;;;2.05;;
44842;SDS011;31884;52.538;13.820;2023-05-08T12:45:32;5.28;;;1.77;;
44842;SDS011;31884;52.538;13.820;2023-05-08T12:48:07;5.43;;;2.38;;
44842;SDS011;31884;52.538;13.820;2023-05-08T12:50:35;2.72;;;2.00;;
44842;SDS011;31884;52.538;13.820;2023-05-08T12:53:03;5.65;;;1.90;;
44842;SDS011;31884;52.538;13.820;2023-05-08T12:55:30;4.63;;;2.15;;
44842;SDS011;31884;52.538;13.820;2023-05-08T12:57:58;3.53;;;2.20;;
44842;SDS011;31884;52.538;13.820;2023-05-08T13:00:23;3.10;;;2.00;;
44842;SDS011;31884;52.538;13.820;2023-05-08T13:02:52;5.18;;;1.83;;
44842;SDS011;31884;52.538;13.820;2023-05-08T13:05:22;5.28;;;2.05;;
44842;SDS011;31884;52.538;13.820;2023-05-08T13:07:48;3.42;;;1.80;;
44842;SDS011;31884;52.538;13.820;2023-05-08T13:10:15;6.72;;;2.03;;
44842;SDS011;31884;52.538;13.820;2023-05-08T13:12:42;4.13;;;2.05;;
44842;SDS011;31884;52.538;13.820;2023-05-08T13:15:09;3.13;;;1.95;;
44842;SDS011;31884;52.538;13.820;2023-05-08T13:17:34;2.33;;;1.88;;
44842;SDS011;31884;52.538;13.820;2023-05-08T13:20:00;5.72;;;2.40;;
44842;SDS011;31884;52.538;13.820;2023-05-08T13:22:27;3.33;;;1.67;;
44842;SDS011;31884;52.538;13.820;2023-05-08T13:24:53;5.20;;;1.70;;
44842;SDS011;31884;52.538;13.820;2023-05-08T13:27:18;3.47;;;1.70;;
44842;SDS011;31884;52.538;13.820;2023-05-08T13:29:44;2.28;;;1.73;;
44842;SDS011;31884;52.538;13.820;2023-05-08T13:32:09;3.45;;;1.65;;
44842;SDS011;31884;52.538;13.820;2023-05-08T13:34:35;2.22;;;1.80;;
44842;SDS011;31884;52.538;13.820;2023-05-08T13:37:00;4.35;;;1.60;;
44842;SDS011;31884;52.538;13.820;2023-05-08T13:39:26;4.47;;;1.77;;
44842;SDS011;31884;52.538;13.820;2023-05-08T13:41:51;5.53;;;1.95;;
44842;SDS011;31884;52.538;13.820;2023-05-08T13:44:17;7.07;;;2.25;;
44842;SDS011;31884;52.538;13.820;2023-05-08T13:46:43;6.65;;;1.77;;
44842;SDS011;31884;52.538;13.820;2023-05-08T13:49:08;2.25;;;1.70;;
44842;SDS011;31884;52.538;13.820;2023-05-08T13:51:34;3.83;;;1.90;;
44842;SDS011;31884;52.538;13.820;2023-05-08T13:53:59;5.40;;;1.83;;
44842;SDS011;31884;52.538;13.820;2023-05-08T13:56:25;4.47;;;2.33;;
44842;SDS011;31884;52.538;13.820;2023-05-08T13:58:51;4.35;;;1.77;;
44842;SDS011;31884;52.538;13.820;2023-05-08T14:01:16;4.57;;;2.10;;
44842;SDS011;31884;52.538;13.820;2023-05-08T14:03:42;4.00;;;2.10;;
44842;SDS011;31884;52.538;13.820;2023-05-08T14:06:07;3.78;;;2.25;;
44842;SDS011;31884;52.538;13.820;2023-05-08T14:08:33;2.10;;;1.90;;
44842;SDS011;31884;52.538;13.820;2023-05-08T14:10:58;5.43;;;1.75;;
44842;SDS011;31884;52.538;13.820;2023-05-08T14:13:24;3.92;;;2.20;;
44842;SDS011;31884;52.538;13.820;2023-05-08T14:15:49;2.92;;;2.40;;
44842;SDS011;31884;52.538;13.820;2023-05-08T14:18:15;2.63;;;2.08;;
44842;SDS011;31884;52.538;13.820;2023-05-08T14:20:40;2.75;;;2.00;;
44842;SDS011;31884;52.538;13.820;2023-05-08T14:23:06;4.85;;;2.20;;
44842;SDS011;31884;52.538;13.820;2023-05-08T14:25:31;3.05;;;1.80;;
44842;SDS011;31884;52.538;13.820;2023-05-08T14:27:56;3.30;;;1.70;;
44842;SDS011;31884;52.538;13.820;2023-05-08T14:30:22;3.95;;;1.90;;
44842;SDS011;31884;52.538;13.820;2023-05-08T14:32:48;3.10;;;2.20;;
44842;SDS011;31884;52.538;13.820;2023-05-08T14:35:13;3.00;;;2.08;;
44842;SDS011;31884;52.538;13.820;2023-05-08T14:37:39;4.07;;;2.15;;
44842;SDS011;31884;52.538;13.820;2023-05-08T14:40:04;3.90;;;2.20;;
44842;SDS011;31884;52.538;13.820;2023-05-08T14:42:31;2.90;;;2.03;;
44842;SDS011;31884;52.538;13.820;2023-05-08T14:44:57;2.63;;;1.80;;
44842;SDS011;31884;52.538;13.820;2023-05-08T14:47:23;7.15;;;2.13;;
44842;SDS011;31884;52.538;13.820;2023-05-08T14:49:48;4.30;;;2.00;;
44842;SDS011;31884;52.538;13.820;2023-05-08T14:52:14;4.93;;;2.17;;
44842;SDS011;31884;52.538;13.820;2023-05-08T14:54:39;2.80;;;2.03;;
44842;SDS011;31884;52.538;13.820;2023-05-08T14:57:05;6.63;;;2.58;;
44842;SDS011;31884;52.538;13.820;2023-05-08T14:59:30;7.85;;;2.08;;
44842;SDS011;31884;52.538;13.820;2023-05-08T15:01:56;3.08;;;1.83;;
44842;SDS011;31884;52.538;13.820;2023-05-08T15:04:21;2.47;;;2.00;;
44842;SDS011;31884;52.538;13.820;2023-05-08T15:06:47;2.63;;;1.98;;
44842;SDS011;31884;52.538;13.820;2023-05-08T15:09:12;3.65;;;2.15;;
44842;SDS011;31884;52.538;13.820;2023-05-08T15:11:40;3.17;;;2.22;;
44842;SDS011;31884;52.538;13.820;2023-05-08T15:14:06;4.75;;;2.33;;
44842;SDS011;31884;52.538;13.820;2023-05-08T15:16:31;3.10;;;2.03;;
44842;SDS011;31884;52.538;13.820;2023-05-08T15:18:57;4.85;;;1.80;;
44842;SDS011;31884;52.538;13.820;2023-05-08T15:21:22;8.40;;;2.53;;
44842;SDS011;31884;52.538;13.820;2023-05-08T15:23:51;2.88;;;1.88;;